Date,TemperatureHighF,TemperatureAvgF,TemperatureLowF,DewpointHighF,DewpointAvgF,DewpointLowF,HumidityHigh,HumidityAvg,HumidityLow,PressureMaxIn,PressureMinIn,WindSpeedMaxMPH,WindSpeedAvgMPH,GustSpeedMaxMPH,PrecipitationSumIn
2014-2-1,40,33,27,40,32,26,100,95,79,29.84,29.47,21,5,25,0.61
2014-2-2,38,30,26,37,28,21,100,89,70,29.89,29.49,15,8,19,0.11
2014-2-3,28,22,16,23,17,14,93,77,57,30.06,29.88,14,7,15,0.00
2014-2-4,32,20,13,23,16,14,100,83,52,30.15,29.92,15,6,16,0.00
2014-2-5,24,21,16,24,22,14,100,98,88,29.92,29.44,31,14,37,0.09
2014-2-6,20,16,7,18,15,8,100,94,80,30.01,29.84,25,9,26,0.00
2014-2-7,17,11,9,14,9,8,97,87,79,29.97,29.84,31,14,34,0.00
2014-2-8,18,12,7,16,11,8,100,90,75,29.99,29.88,18,9,20,0.00
2014-2-9,24,16,13,23,17,14,100,97,82,29.88,29.62,14,6,16,0.00
2014-2-10,21,16,10,21,14,8,100,87,60,29.99,29.75,20,10,24,0.00
2014-2-11,16,14,10,14,11,8,99,85,65,30.19,29.97,17,9,22,0.00
2014-2-12,28,9,-8,14,4,-6,100,77,35,30.20,29.83,11,4,13,0.01
2014-2-13,28,15,-3,24,14,0,100,89,65,29.84,29.20,19,5,20,0.00
2014-2-14,30,27,24,26,24,21,97,87,73,29.37,29.10,25,8,25,0.00
2014-2-15,27,24,16,26,22,14,100,89,71,29.69,29.37,19,9,23,0.00
2014-2-16,18,15,10,18,14,4,100,90,62,29.98,29.67,19,9,23,0.00
2014-2-17,25,13,-9,18,6,-6,100,72,50,30.13,29.48,23,7,25,0.00
2014-2-18,31,26,21,29,24,16,100,87,63,29.67,29.36,28,11,31,0.00
2014-2-19,48,38,23,35,29,21,97,70,47,29.72,29.24,23,9,27,0.04
2014-2-20,42,35,30,36,32,29,100,90,68,29.79,29.37,20,8,22,0.69
2014-2-21,48,39,35,47,33,21,100,78,49,29.40,29.13,38,14,43,0.49
2014-2-22,42,38,35,31,23,18,74,53,43,29.59,29.39,36,16,43,0.10
2014-2-23,37,32,26,26,19,11,72,58,36,29.64,29.55,26,11,31,0.00
2014-2-24,26,22,19,21,14,8,100,71,52,29.76,29.60,29,15,33,0.00
2014-2-25,21,18,15,21,14,11,98,79,60,29.75,29.51,22,11,25,0.00
2014-2-26,20,12,10,18,5,-6,100,69,47,29.68,23.50,32,14,34,0.00
2014-2-27,17,12,8,16,6,-6,100,71,45,29.82,29.18,37,16,43,0.10
2014-2-28,16,10,6,8,1,-6,95,62,33,30.08,29.82,17,8,23,0.00